Time;durP1;ratioP1;P1;durP2;ratioP2;P2;SDS_P1;SDS_P2;PMS_P1;PMS_P2;Temp;Humidity;BMP_temperature;BMP_pressure;BME280_temperature;BME280_humidity;BME280_pressure;Samples;Min_cycle;Max_cycle;Signal;HPM_P1;HPM_P2
2022/04/14 00:01:33;;;;;;;14.27;10.07;;;14.60;99.90;;;;;;6214846;23;20344;-58
2022/04/14 00:03:59;;;;;;;14.45;9.43;;;14.80;99.90;;;;;;6215500;23;20434;-56
2022/04/14 00:06:24;;;;;;;14.03;7.60;;;14.80;99.90;;;;;;6215767;23;20374;-60
2022/04/14 00:08:52;;;;;;;12.20;8.15;;;14.70;99.90;;;;;;6216015;23;20473;-59
2022/04/14 00:11:18;;;;;;;12.05;8.00;;;14.60;99.90;;;;;;6215970;23;20343;-58
2022/04/14 00:13:44;;;;;;;11.65;7.97;;;14.60;99.90;;;;;;6216108;23;20343;-56
2022/04/14 00:16:10;;;;;;;12.15;8.25;;;14.70;99.90;;;;;;6214385;23;20382;-59
2022/04/14 00:18:35;;;;;;;10.65;7.47;;;14.80;99.90;;;;;;6215970;23;20348;-56
2022/04/14 00:21:01;;;;;;;15.13;9.30;;;14.80;99.90;;;;;;6215012;23;20445;-59
2022/04/14 00:23:26;;;;;;;14.00;8.88;;;14.80;99.90;;;;;;6216082;23;20649;-57
2022/04/14 00:25:52;;;;;;;12.20;8.23;;;14.60;99.90;;;;;;6215012;23;20354;-59
2022/04/14 00:28:17;;;;;;;12.17;8.17;;;14.60;99.90;;;;;;6215247;23;20379;-59
2022/04/14 00:30:43;;;;;;;12.88;8.70;;;14.70;99.90;;;;;;6216436;23;20645;-58
2022/04/14 00:33:09;;;;;;;14.17;8.97;;;14.80;99.90;;;;;;6216272;23;20382;-56
2022/04/14 00:35:34;;;;;;;15.07;9.18;;;14.80;99.90;;;;;;6216038;23;20356;-59
2022/04/14 00:38:00;;;;;;;13.60;9.57;;;14.80;99.90;;;;;;6216596;23;20392;-59
2022/04/14 00:40:25;;;;;;;13.67;9.67;;;14.60;99.90;;;;;;6217044;23;20347;-57
2022/04/14 00:42:51;;;;;;;17.98;11.35;;;14.50;99.90;;;;;;6216242;23;20355;-58
2022/04/14 00:45:16;;;;;;;17.58;11.18;;;14.20;99.90;;;;;;6216276;23;20873;-59
2022/04/14 00:47:42;;;;;;;18.63;11.50;;;14.10;99.90;;;;;;6216378;23;20358;-59
2022/04/14 00:50:29;;;;;;;14.30;11.13;;;14.10;99.90;;;;;;6215447;23;20347;-57
2022/04/14 00:52:55;;;;;;;15.68;11.30;;;14.20;99.90;;;;;;6215541;23;20348;-57
2022/04/14 00:55:20;;;;;;;15.07;11.05;;;14.30;99.90;;;;;;6215299;23;20799;-59
2022/04/14 00:57:46;;;;;;;15.07;10.50;;;14.40;99.90;;;;;;6215965;23;20446;-59
2022/04/14 01:00:12;;;;;;;18.10;12.03;;;14.60;99.90;;;;;;6215979;23;20450;-57
2022/04/14 01:02:38;;;;;;;20.60;15.77;;;14.60;99.90;;;;;;6215470;23;20415;-58
2022/04/14 01:05:04;;;;;;;24.67;17.92;;;14.40;99.90;;;;;;6215592;23;20359;-58
2022/04/14 01:07:33;;;;;;;27.27;18.95;;;14.20;99.90;;;;;;6216176;23;20413;-57
2022/04/14 01:09:59;;;;;;;23.13;18.27;;;14.10;99.90;;;;;;6216596;23;20399;-59
2022/04/14 01:12:25;;;;;;;26.00;20.17;;;14.00;99.90;;;;;;6215917;23;20370;-58
2022/04/14 01:14:51;;;;;;;26.83;20.83;;;14.00;99.90;;;;;;6214965;23;20371;-59
2022/04/14 01:17:17;;;;;;;27.00;20.00;;;14.00;99.90;;;;;;6215263;23;20867;-58
2022/04/14 01:19:43;;;;;;;27.00;22.43;;;14.00;99.90;;;;;;6215128;23;21023;-57
2022/04/14 01:22:18;;;;;;;30.00;21.75;;;13.90;99.90;;;;;;6216103;23;20368;-58
2022/04/14 01:24:43;;;;;;;28.23;22.50;;;13.90;99.90;;;;;;6216490;23;20340;-59
2022/04/14 01:27:09;;;;;;;30.55;23.10;;;13.80;99.90;;;;;;6214616;23;20469;-59
2022/04/14 01:29:35;;;;;;;30.05;23.50;;;13.80;99.90;;;;;;6215317;23;20374;-59
2022/04/14 01:32:04;;;;;;;28.25;22.85;;;13.80;99.90;;;;;;6214734;23;20348;-58
2022/04/14 01:34:31;;;;;;;29.00;21.98;;;13.80;99.90;;;;;;6214689;23;20355;-59
2022/04/14 01:37:02;;;;;;;27.37;21.33;;;13.80;99.90;;;;;;6216053;23;20351;-59
2022/04/14 01:39:28;;;;;;;26.13;20.85;;;13.80;99.90;;;;;;6214157;23;20364;-58
2022/04/14 01:41:54;;;;;;;28.27;21.50;;;13.80;99.90;;;;;;6215159;23;20377;-59
2022/04/14 01:44:20;;;;;;;26.92;22.00;;;13.70;99.90;;;;;;6215735;23;20442;-58
2022/04/14 01:46:47;;;;;;;27.17;20.80;;;13.70;99.90;;;;;;6216946;23;20356;-58
2022/04/14 01:49:19;;;;;;;24.88;20.58;;;13.70;99.90;;;;;;6215661;23;20626;-56
2022/04/14 01:51:48;;;;;;;25.63;19.40;;;13.60;99.90;;;;;;6216316;23;20347;-55
2022/04/14 01:54:15;;;;;;;24.38;19.77;;;13.50;99.90;;;;;;6216804;23;20354;-59
2022/04/14 01:56:41;;;;;;;24.15;18.50;;;13.60;99.90;;;;;;6216002;23;20377;-59
2022/04/14 01:59:07;;;;;;;24.80;19.02;;;13.60;99.90;;;;;;6216254;23;20343;-57
2022/04/14 02:01:33;;;;;;;22.70;18.17;;;13.70;99.90;;;;;;6215313;23;20436;-57
2022/04/14 02:03:59;;;;;;;23.63;18.33;;;13.70;99.90;;;;;;6215108;23;20818;-55
2022/04/14 02:06:25;;;;;;;23.35;17.70;;;13.70;99.90;;;;;;6216357;23;20355;-59
2022/04/14 02:08:52;;;;;;;22.30;17.67;;;13.60;99.90;;;;;;6215626;23;20352;-53
2022/04/14 02:11:18;;;;;;;23.63;17.88;;;13.50;99.90;;;;;;6215898;23;20395;-53
2022/04/14 02:13:44;;;;;;;22.98;18.02;;;13.40;99.90;;;;;;6215588;23;20371;-58
2022/04/14 02:16:09;;;;;;;27.02;18.25;;;13.40;99.90;;;;;;6214739;23;20351;-55
2022/04/14 02:18:35;;;;;;;21.63;17.25;;;13.30;99.90;;;;;;6214877;23;20621;-55
2022/04/14 02:21:01;;;;;;;25.30;18.27;;;13.40;99.90;;;;;;6214385;23;20355;-57
2022/04/14 02:23:28;;;;;;;25.40;17.30;;;13.40;99.90;;;;;;6215668;23;20783;-58
2022/04/14 02:25:54;;;;;;;22.80;17.40;;;13.50;99.90;;;;;;6214679;23;20437;-54
2022/04/14 02:28:21;;;;;;;22.43;17.37;;;13.40;99.90;;;;;;6214654;23;20395;-59
2022/04/14 02:30:54;;;;;;;24.80;18.35;;;13.40;99.90;;;;;;6215300;23;20784;-56
2022/04/14 02:33:19;;;;;;;21.63;16.75;;;13.40;99.90;;;;;;6214612;23;20363;-59
2022/04/14 02:35:46;;;;;;;24.17;17.80;;;13.40;99.90;;;;;;6214805;23;20450;-58
2022/04/14 02:38:12;;;;;;;20.50;17.00;;;13.30;99.90;;;;;;6215736;23;20359;-59
2022/04/14 02:40:38;;;;;;;21.95;17.75;;;13.30;99.90;;;;;;6213356;23;20362;-59
2022/04/14 02:43:05;;;;;;;19.77;16.67;;;13.40;99.90;;;;;;6214885;23;20378;-59
2022/04/14 02:45:31;;;;;;;20.73;16.83;;;13.40;99.90;;;;;;6216731;23;20362;-58
2022/04/14 02:47:58;;;;;;;20.98;16.38;;;13.50;99.90;;;;;;6218851;23;20721;-57
2022/04/14 02:50:23;;;;;;;22.48;16.80;;;13.60;99.90;;;;;;6217653;23;20405;-59
2022/04/14 02:52:50;;;;;;;20.02;16.33;;;13.70;99.90;;;;;;6217371;23;20367;-59
2022/04/14 02:55:19;;;;;;;20.42;17.17;;;13.80;99.90;;;;;;6217034;23;20351;-59
2022/04/14 02:57:48;;;;;;;19.67;16.35;;;13.80;99.90;;;;;;6217294;23;20362;-58
2022/04/14 03:00:14;;;;;;;22.38;17.02;;;13.80;99.90;;;;;;6193033;23;20360;-59
2022/04/14 03:02:40;;;;;;;21.10;17.47;;;13.70;99.90;;;;;;6215436;23;20383;-59
2022/04/14 03:05:07;;;;;;;18.77;15.98;;;13.60;99.90;;;;;;6216211;23;20807;-59
2022/04/14 03:07:33;;;;;;;21.50;17.17;;;13.60;99.90;;;;;;6217263;23;20375;-59
2022/04/14 03:10:00;;;;;;;21.33;16.50;;;13.70;99.90;;;;;;6217115;23;20352;-59
2022/04/14 03:12:39;;;;;;;20.63;16.83;;;13.80;99.90;;;;;;6217636;23;20406;-58
2022/04/14 03:15:05;;;;;;;19.73;16.67;;;13.80;99.90;;;;;;6217172;23;20378;-54
2022/04/14 03:17:32;;;;;;;22.95;18.67;;;13.80;99.90;;;;;;6216876;23;20366;-57
2022/04/14 03:19:58;;;;;;;23.98;19.35;;;13.80;99.90;;;;;;6216550;23;20351;-59
2022/04/14 03:22:24;;;;;;;23.50;19.30;;;13.70;99.90;;;;;;6217579;23;20784;-58
2022/04/14 03:24:49;;;;;;;24.20;20.03;;;13.50;99.90;;;;;;6216333;23;20348;-59
2022/04/14 03:27:16;;;;;;;23.80;19.20;;;13.40;99.90;;;;;;6214850;23;20461;-59
2022/04/14 03:29:42;;;;;;;23.75;19.33;;;13.30;99.90;;;;;;6214304;23;20363;-59
2022/04/14 03:32:07;;;;;;;25.03;19.53;;;13.30;99.90;;;;;;6214250;23;20383;-57
2022/04/14 03:34:33;;;;;;;25.40;20.03;;;13.40;99.90;;;;;;6215215;23;20352;-58
2022/04/14 03:36:59;;;;;;;23.77;19.70;;;13.40;99.90;;;;;;6215528;23;20381;-57
2022/04/14 03:39:26;;;;;;;29.90;21.08;;;13.40;99.90;;;;;;6215217;23;20716;-57
2022/04/14 03:41:51;;;;;;;26.75;21.73;;;13.50;99.90;;;;;;6215912;23;20773;-57
2022/04/14 03:44:17;;;;;;;26.23;21.27;;;13.50;99.90;;;;;;6216105;23;20386;-57
2022/04/14 03:46:42;;;;;;;27.53;22.30;;;13.30;99.90;;;;;;6216767;23;20374;-58
2022/04/14 03:49:08;;;;;;;28.17;22.27;;;13.20;99.90;;;;;;6216421;23;20761;-53
2022/04/14 03:51:34;;;;;;;29.20;22.33;;;13.20;99.90;;;;;;6216532;23;20838;-58
2022/04/14 03:54:06;;;;;;;27.98;22.30;;;13.20;99.90;;;;;;6215449;23;20344;-57
2022/04/14 03:56:32;;;;;;;27.92;21.75;;;13.20;99.90;;;;;;6216142;23;20361;-58
2022/04/14 03:59:00;;;;;;;30.40;22.42;;;13.20;99.90;;;;;;6217427;23;20359;-56
2022/04/14 04:01:25;;;;;;;26.98;21.45;;;13.30;99.90;;;;;;6216035;23;20436;-58
2022/04/14 04:03:51;;;;;;;27.60;22.43;;;13.30;99.90;;;;;;6215418;23;20429;-55
2022/04/14 04:06:17;;;;;;;27.27;22.50;;;13.30;99.90;;;;;;6216169;23;20371;-58
2022/04/14 04:08:43;;;;;;;32.25;23.08;;;13.20;99.90;;;;;;6216119;23;20370;-58
2022/04/14 04:11:08;;;;;;;28.83;22.20;;;13.20;99.90;;;;;;6215469;23;20398;-59
2022/04/14 04:13:35;;;;;;;28.60;21.15;;;13.10;99.90;;;;;;6215975;23;20482;-59
2022/04/14 04:16:03;;;;;;;27.98;22.10;;;13.10;99.90;;;;;;6215061;23;20347;-56
2022/04/14 04:18:33;;;;;;;30.15;22.15;;;13.20;99.90;;;;;;6214734;23;20417;-57
2022/04/14 04:20:59;;;;;;;28.17;21.05;;;13.20;99.90;;;;;;6214374;23;20359;-59
2022/04/14 04:23:26;;;;;;;27.88;20.60;;;13.00;99.90;;;;;;6214168;23;20436;-59
2022/04/14 04:25:53;;;;;;;29.40;20.58;;;13.00;99.90;;;;;;6215280;23;20411;-59
2022/04/14 04:28:20;;;;;;;24.67;19.00;;;13.10;99.90;;;;;;6215255;23;20347;-58
2022/04/14 04:30:46;;;;;;;24.35;20.02;;;13.20;99.90;;;;;;6217111;23;20347;-56
2022/04/14 04:33:12;;;;;;;24.90;19.38;;;13.30;99.90;;;;;;6216001;23;20426;-58
2022/04/14 04:35:37;;;;;;;24.37;20.83;;;13.30;99.90;;;;;;6217063;23;20348;-57
2022/04/14 04:38:04;;;;;;;26.02;20.13;;;13.30;99.90;;;;;;6217496;23;20391;-58
2022/04/14 04:40:31;;;;;;;25.40;20.15;;;13.40;99.90;;;;;;6215239;23;20439;-58
2022/04/14 04:42:59;;;;;;;25.98;20.65;;;13.40;99.90;;;;;;6214761;23;20469;-59
2022/04/14 04:45:24;;;;;;;27.33;20.60;;;13.40;99.90;;;;;;6214316;23;20478;-59
2022/04/14 04:47:50;;;;;;;26.90;20.90;;;13.40;99.90;;;;;;6212812;23;20383;-59
2022/04/14 04:50:15;;;;;;;28.20;21.52;;;13.30;99.90;;;;;;6212840;23;20343;-59
2022/04/14 04:52:41;;;;;;;26.90;21.00;;;13.20;99.90;;;;;;6213149;23;20359;-59
2022/04/14 04:55:07;;;;;;;30.23;21.57;;;13.20;99.90;;;;;;6213043;23;20348;-59
2022/04/14 04:57:33;;;;;;;27.80;21.27;;;13.10;99.90;;;;;;6213584;23;20351;-59
2022/04/14 04:59:58;;;;;;;29.93;21.13;;;13.00;99.90;;;;;;6214213;23;20364;-58
2022/04/14 05:02:25;;;;;;;28.98;20.65;;;12.90;99.90;;;;;;6212584;23;20383;-56
2022/04/14 05:04:52;;;;;;;32.27;21.57;;;12.90;99.90;;;;;;6212576;23;20495;-57
2022/04/14 05:07:18;;;;;;;27.00;21.35;;;12.80;99.90;;;;;;6211352;23;20344;-53
2022/04/14 05:09:43;;;;;;;29.15;20.70;;;12.70;99.90;;;;;;6212784;23;20435;-59
2022/04/14 05:12:41;;;;;;;30.77;21.77;;;12.60;99.90;;;;;;6211581;23;20352;-59
2022/04/14 05:15:13;;;;;;;30.17;21.42;;;12.60;99.90;;;;;;6209047;23;20359;-58
2022/04/14 05:17:45;;;;;;;30.52;22.00;;;12.50;99.90;;;;;;6208076;23;20384;-60
2022/04/14 05:20:10;;;;;;;29.58;21.40;;;12.50;99.90;;;;;;6208016;23;20391;-57
2022/04/14 05:22:37;;;;;;;31.65;21.30;;;12.60;99.90;;;;;;6208258;23;20388;-57
2022/04/14 05:25:03;;;;;;;28.73;21.43;;;12.50;99.90;;;;;;6208630;23;20356;-59
2022/04/14 05:27:29;;;;;;;30.57;22.53;;;12.60;99.90;;;;;;6210949;23;20352;-59
2022/04/14 05:29:56;;;;;;;29.98;21.35;;;12.50;99.90;;;;;;6211077;23;20356;-58
2022/04/14 05:32:23;;;;;;;31.35;21.40;;;12.60;99.90;;;;;;6210563;23;20704;-57
2022/04/14 05:34:49;;;;;;;32.15;22.02;;;12.60;99.90;;;;;;6209154;23;20358;-60
2022/04/14 05:37:14;;;;;;;28.13;22.35;;;12.60;99.90;;;;;;6212121;23;20370;-57
2022/04/14 05:39:41;;;;;;;30.03;21.50;;;12.50;99.90;;;;;;6212044;23;20359;-56
2022/04/14 05:42:07;;;;;;;29.58;22.38;;;12.50;99.90;;;;;;6211979;23;20470;-60
2022/04/14 05:44:34;;;;;;;29.05;21.38;;;12.50;99.90;;;;;;6211391;23;21007;-58
2022/04/14 05:47:00;;;;;;;26.85;20.83;;;12.50;99.90;;;;;;6211547;23;20343;-59
2022/04/14 05:49:25;;;;;;;26.77;21.00;;;12.50;99.90;;;;;;6213018;23;20352;-57
2022/04/14 05:51:51;;;;;;;28.83;20.77;;;12.70;99.90;;;;;;6213730;23;20394;-60
2022/04/14 05:54:16;;;;;;;31.35;21.15;;;12.70;99.90;;;;;;6212715;23;20453;-59
2022/04/14 05:56:42;;;;;;;29.80;22.17;;;12.70;99.90;;;;;;6211440;23;20356;-60
2022/04/14 05:59:16;;;;;;;29.60;21.90;;;12.60;99.90;;;;;;6209596;23;20400;-56
2022/04/14 06:01:41;;;;;;;27.13;20.50;;;12.60;99.90;;;;;;6209253;23;20822;-58
2022/04/14 06:04:07;;;;;;;26.95;20.42;;;12.70;99.90;;;;;;6209739;23;20936;-59
2022/04/14 06:06:33;;;;;;;26.13;20.00;;;12.70;99.90;;;;;;6211561;23;20355;-59
2022/04/14 06:08:59;;;;;;;30.20;21.80;;;12.70;99.90;;;;;;6208489;23;20355;-57
2022/04/14 06:11:25;;;;;;;31.38;21.38;;;12.70;99.90;;;;;;6208651;23;20750;-57
2022/04/14 06:13:51;;;;;;;29.77;21.63;;;12.70;99.90;;;;;;6208232;23;20942;-59
2022/04/14 06:16:17;;;;;;;29.73;21.58;;;12.80;99.90;;;;;;6207479;23;20418;-57
2022/04/14 06:18:43;;;;;;;28.10;20.77;;;12.80;99.90;;;;;;6208535;23;20661;-58
2022/04/14 06:21:09;;;;;;;26.53;22.03;;;12.90;99.90;;;;;;6208631;23;20509;-59
2022/04/14 06:23:36;;;;;;;26.98;20.42;;;12.80;99.90;;;;;;6211186;23;20956;-57
2022/04/14 06:26:03;;;;;;;30.43;20.87;;;12.80;99.90;;;;;;6212229;23;20355;-57
2022/04/14 06:28:31;;;;;;;26.05;20.58;;;12.80;99.90;;;;;;6211445;23;20369;-59
2022/04/14 06:30:57;;;;;;;25.08;19.10;;;12.90;99.90;;;;;;6212193;23;20352;-59
2022/04/14 06:33:25;;;;;;;28.10;20.70;;;12.90;99.90;;;;;;6211095;23;20635;-56
2022/04/14 06:35:52;;;;;;;24.20;19.20;;;13.00;99.90;;;;;;6209695;23;20360;-59
2022/04/14 06:38:19;;;;;;;25.10;19.73;;;13.10;99.90;;;;;;6209879;23;20375;-60
2022/04/14 06:40:46;;;;;;;27.98;20.25;;;13.20;99.90;;;;;;6209550;23;20417;-59
2022/04/14 06:43:12;;;;;;;26.08;19.83;;;13.20;99.90;;;;;;6209364;23;20371;-59
2022/04/14 06:45:39;;;;;;;23.43;18.73;;;13.30;99.90;;;;;;6182028;23;20355;-58
2022/04/14 06:48:07;;;;;;;23.67;19.48;;;13.20;99.90;;;;;;6205750;23;20434;-59
2022/04/14 06:50:34;;;;;;;25.08;19.00;;;13.20;99.90;;;;;;6206207;23;20788;-57
2022/04/14 06:52:59;;;;;;;25.50;20.25;;;13.20;99.90;;;;;;6208348;23;20417;-59
2022/04/14 06:55:27;;;;;;;27.77;20.23;;;13.10;99.90;;;;;;6206305;23;20437;-57
2022/04/14 06:57:56;;;;;;;22.70;18.55;;;13.20;99.90;;;;;;6206166;23;20765;-59
2022/04/14 07:00:23;;;;;;;25.63;20.17;;;13.20;99.90;;;;;;6205356;23;20355;-58
2022/04/14 07:02:51;;;;;;;27.65;19.88;;;13.20;99.90;;;;;;6203660;23;20796;-58
2022/04/14 07:05:17;;;;;;;23.77;20.02;;;13.20;99.90;;;;;;6204771;23;20348;-56
2022/04/14 07:07:46;;;;;;;26.95;20.35;;;13.20;99.90;;;;;;6204872;23;20438;-59
2022/04/14 07:10:12;;;;;;;22.60;19.77;;;13.20;99.90;;;;;;6206415;23;20454;-59
2022/04/14 07:12:41;;;;;;;24.52;20.20;;;13.30;99.90;;;;;;6202904;23;20383;-59
2022/04/14 07:15:09;;;;;;;24.02;19.95;;;13.20;99.90;;;;;;6207631;23;20351;-63
2022/04/14 07:17:37;;;;;;;22.60;18.23;;;13.30;99.90;;;;;;6206499;23;20356;-59
2022/04/14 07:20:05;;;;;;;27.63;21.55;;;13.20;99.90;;;;;;6206269;23;20383;-59
2022/04/14 07:22:41;;;;;;;24.63;21.13;;;13.20;99.90;;;;;;6204158;23;20812;-59
2022/04/14 07:25:07;;;;;;;23.13;20.17;;;13.20;99.90;;;;;;6203107;23;20761;-60
2022/04/14 07:27:32;;;;;;;24.60;20.50;;;13.20;99.90;;;;;;6200608;23;20352;-59
2022/04/14 07:29:59;;;;;;;25.33;21.90;;;13.20;99.90;;;;;;6197960;23;20885;-59
2022/04/14 07:32:34;;;;;;;24.25;20.27;;;13.30;99.90;;;;;;6197881;23;20347;-59
2022/04/14 07:35:00;;;;;;;23.02;20.13;;;13.30;99.90;;;;;;6202527;23;20351;-59
2022/04/14 07:37:26;;;;;;;21.20;18.60;;;13.30;99.90;;;;;;6204105;23;20637;-59
2022/04/14 07:39:52;;;;;;;22.15;18.38;;;13.40;99.90;;;;;;6205609;23;20909;-59
2022/04/14 07:42:17;;;;;;;22.00;19.70;;;13.40;99.90;;;;;;6205288;23;20370;-59
2022/04/14 07:44:43;;;;;;;24.13;20.15;;;13.30;99.90;;;;;;6207784;23;20629;-58
2022/04/14 07:47:09;;;;;;;23.63;19.70;;;13.30;99.90;;;;;;6206600;23;20492;-59
2022/04/14 07:49:36;;;;;;;26.10;19.85;;;13.30;99.90;;;;;;6206481;23;20737;-59
2022/04/14 07:52:03;;;;;;;24.00;20.27;;;13.30;99.90;;;;;;6205764;23;20347;-57
2022/04/14 07:54:29;;;;;;;24.83;20.80;;;13.30;99.90;;;;;;6206808;23;20446;-57
2022/04/14 07:56:56;;;;;;;22.43;19.13;;;13.30;99.90;;;;;;6208831;23;20371;-60
2022/04/14 07:59:23;;;;;;;22.50;20.13;;;13.30;99.90;;;;;;6209949;23;20672;-59
2022/04/14 08:01:48;;;;;;;23.83;19.55;;;13.40;99.90;;;;;;6209041;23;20362;-58
2022/04/14 08:04:14;;;;;;;24.40;20.55;;;13.50;99.90;;;;;;6206621;23;20344;-59
2022/04/14 08:06:39;;;;;;;25.63;19.97;;;13.50;99.90;;;;;;6203749;23;20343;-59
2022/04/14 08:09:06;;;;;;;25.37;21.53;;;13.50;99.90;;;;;;6203936;23;20768;-58
2022/04/14 08:11:34;;;;;;;23.42;20.63;;;13.50;99.90;;;;;;6205411;23;20358;-58
2022/04/14 08:13:59;;;;;;;23.67;19.85;;;13.50;99.90;;;;;;6207006;23;20733;-60
2022/04/14 08:16:26;;;;;;;24.67;20.40;;;13.50;99.90;;;;;;6206979;23;21070;-59
2022/04/14 08:18:51;;;;;;;24.40;20.08;;;13.40;99.90;;;;;;6208151;23;20350;-57
2022/04/14 08:21:17;;;;;;;22.90;20.07;;;13.50;99.90;;;;;;6208092;23;20630;-57
2022/04/14 08:23:42;;;;;;;22.67;19.27;;;13.40;99.90;;;;;;6205134;23;20364;-58
2022/04/14 08:26:09;;;;;;;26.40;20.65;;;13.50;99.90;;;;;;6202593;23;20433;-59
2022/04/14 08:28:40;;;;;;;27.25;21.58;;;13.60;99.90;;;;;;6203854;23;20364;-58
2022/04/14 08:31:29;;;;;;;25.35;21.05;;;13.60;99.90;;;;;;6204709;23;20383;-59
2022/04/14 08:33:56;;;;;;;26.30;21.88;;;13.60;99.90;;;;;;6209095;23;20343;-59
2022/04/14 08:36:22;;;;;;;24.67;21.77;;;13.70;99.90;;;;;;6207524;23;20764;-64
2022/04/14 08:38:50;;;;;;;23.60;21.10;;;13.70;99.90;;;;;;6205641;23;21084;-59
2022/04/14 08:41:21;;;;;;;25.00;21.20;;;13.60;99.90;;;;;;6201755;23;20695;-58
2022/04/14 08:44:10;;;;;;;27.75;22.33;;;13.70;99.90;;;;;;6200471;23;20453;-59
2022/04/14 08:46:39;;;;;;;24.23;20.83;;;13.70;99.90;;;;;;6203737;23;20455;-59
2022/04/14 08:49:07;;;;;;;24.42;21.20;;;13.80;99.90;;;;;;6204239;23;20374;-59
2022/04/14 08:51:51;;;;;;;23.52;21.02;;;13.90;99.90;;;;;;6208171;23;20370;-58
2022/04/14 08:55:04;;;;;;;25.10;21.05;;;13.90;99.90;;;;;;6206124;23;20347;-58
2022/04/14 08:57:56;;;;;;;21.90;18.80;;;14.00;99.90;;;;;;6200909;23;20356;-58
2022/04/14 09:00:21;;;;;;;24.10;20.30;;;14.00;99.90;;;;;;6203683;23;20344;-57
2022/04/14 09:02:49;;;;;;;22.50;19.57;;;14.10;99.90;;;;;;6203463;23;20704;-59
2022/04/14 09:05:17;;;;;;;22.95;17.92;;;14.00;99.90;;;;;;6205825;23;20649;-57
2022/04/14 09:07:46;;;;;;;24.27;18.75;;;14.00;99.90;;;;;;6209590;23;20355;-59
2022/04/14 09:10:12;;;;;;;22.02;16.90;;;14.00;99.90;;;;;;6208786;23;20370;-59
2022/04/14 09:12:37;;;;;;;20.47;16.53;;;14.00;99.90;;;;;;6207261;23;20673;-59
2022/04/14 09:15:04;;;;;;;18.33;16.33;;;14.00;99.90;;;;;;6206897;23;20681;-59
2022/04/14 09:17:30;;;;;;;17.80;15.93;;;13.90;99.90;;;;;;6207788;23;20352;-59
2022/04/14 09:19:56;;;;;;;17.73;15.82;;;14.00;99.90;;;;;;6207377;23;20409;-59
2022/04/14 09:22:21;;;;;;;18.70;15.65;;;14.00;99.90;;;;;;6207914;23;20379;-59
2022/04/14 09:24:48;;;;;;;21.23;16.37;;;14.10;99.90;;;;;;6206012;23;20348;-57
2022/04/14 09:27:39;;;;;;;18.73;16.73;;;14.20;99.90;;;;;;6199745;23;20604;-59
2022/04/14 09:30:06;;;;;;;19.73;17.58;;;14.30;99.90;;;;;;6198492;23;20348;-59
2022/04/14 09:32:43;;;;;;;18.90;16.95;;;14.20;99.90;;;;;;6197800;23;20355;-59
2022/04/14 09:35:20;;;;;;;20.27;16.65;;;14.20;99.90;;;;;;6198602;23;20636;-59
2022/04/14 09:38:00;;;;;;;20.83;17.75;;;14.20;99.90;;;;;;6200994;23;20374;-58
2022/04/14 09:40:30;;;;;;;19.63;16.88;;;14.20;99.90;;;;;;6203099;23;20359;-59
2022/04/14 09:42:56;;;;;;;18.83;16.42;;;14.10;99.90;;;;;;6199770;23;20858;-59
2022/04/14 09:45:28;;;;;;;17.10;15.07;;;14.30;99.90;;;;;;6199978;23;20344;-58
2022/04/14 09:48:50;;;;;;;16.50;14.75;;;14.30;99.90;;;;;;6201831;23;20769;-60
2022/04/14 09:51:25;;;;;;;19.35;14.57;;;14.40;99.90;;;;;;6203656;23;20370;-59
2022/04/14 09:54:11;;;;;;;18.65;15.30;;;14.50;99.90;;;;;;6204222;23;20351;-59
2022/04/14 09:56:54;;;;;;;16.60;14.80;;;14.50;99.90;;;;;;6203516;23;20434;-59
2022/04/14 10:03:11;;;;;;;18.40;15.13;;;14.50;99.90;;;;;;6204087;23;20775;-59
2022/04/14 10:05:37;;;;;;;15.23;13.68;;;14.40;99.90;;;;;;6202247;23;20360;-59
2022/04/14 10:08:07;;;;;;;16.30;13.35;;;14.40;99.90;;;;;;6202790;23;20413;-60
2022/04/14 10:10:33;;;;;;;16.20;13.45;;;14.60;99.90;;;;;;6201004;23;20711;-59
2022/04/14 10:13:06;;;;;;;15.55;13.98;;;14.70;99.90;;;;;;6199284;23;20644;-57
2022/04/14 10:15:37;;;;;;;15.40;13.35;;;14.80;99.90;;;;;;6202721;23;20367;-59
2022/04/14 10:18:11;;;;;;;16.67;13.90;;;14.80;99.90;;;;;;6203207;23;20355;-59
2022/04/14 10:20:38;;;;;;;15.05;13.45;;;14.80;99.90;;;;;;6201469;23;20511;-60
2022/04/14 10:23:05;;;;;;;15.15;13.27;;;14.80;99.90;;;;;;6200247;23;20368;-55
2022/04/14 10:25:32;;;;;;;16.63;13.30;;;14.70;99.90;;;;;;6198378;23;20753;-60
2022/04/14 10:27:58;;;;;;;15.43;13.80;;;14.70;99.90;;;;;;6201277;23;20871;-57
2022/04/14 10:30:24;;;;;;;15.63;14.02;;;14.50;99.90;;;;;;6198753;23;20417;-59
2022/04/14 10:32:53;;;;;;;17.10;13.48;;;14.50;99.90;;;;;;6200056;23;20501;-59
2022/04/14 10:35:18;;;;;;;14.30;12.55;;;14.60;99.90;;;;;;6202581;23;20681;-59
2022/04/14 10:37:49;;;;;;;13.47;11.93;;;14.60;99.90;;;;;;6202944;23;20864;-60
2022/04/14 10:40:15;;;;;;;13.18;11.68;;;14.60;99.90;;;;;;6204809;23;20408;-60
2022/04/14 10:42:53;;;;;;;13.48;11.55;;;14.70;99.90;;;;;;6205010;23;20462;-59
2022/04/14 10:45:22;;;;;;;14.68;12.35;;;14.80;99.90;;;;;;6201379;23;20462;-60
2022/04/14 10:54:58;;;;;;;14.65;12.50;;;15.00;99.90;;;;;;6203310;23;20401;-59
2022/04/14 10:57:36;;;;;;;14.30;12.23;;;15.10;99.90;;;;;;6198137;23;20828;-58
2022/04/14 11:00:22;;;;;;;13.75;11.85;;;15.40;99.90;;;;;;6202402;23;20347;-57
2022/04/14 11:03:07;;;;;;;12.02;10.05;;;15.50;99.90;;;;;;6202319;23;20415;-56
2022/04/14 11:05:51;;;;;;;13.27;11.97;;;15.70;99.90;;;;;;6203875;23;20621;-60
2022/04/14 11:08:28;;;;;;;14.13;12.63;;;15.90;99.90;;;;;;6204145;23;20350;-59
2022/04/14 11:11:08;;;;;;;13.35;11.68;;;16.00;99.90;;;;;;6203567;23;20729;-59
2022/04/14 11:13:53;;;;;;;12.52;11.30;;;16.10;99.90;;;;;;6200681;23;20413;-60
2022/04/14 11:16:47;;;;;;;12.02;10.82;;;15.90;99.90;;;;;;6208112;23;20348;-59
2022/04/14 11:19:19;;;;;;;12.60;11.23;;;15.90;99.90;;;;;;6207567;23;20419;-58
2022/04/14 11:22:12;;;;;;;11.90;10.70;;;15.80;99.90;;;;;;6208150;23;20433;-56
2022/04/14 11:24:41;;;;;;;11.10;9.85;;;15.80;99.90;;;;;;6210963;23;20358;-58
2022/04/14 11:27:21;;;;;;;9.85;8.85;;;16.00;99.90;;;;;;6210288;23;20351;-59
2022/04/14 11:29:49;;;;;;;8.40;7.60;;;16.30;99.90;;;;;;6209466;23;20745;-58
2022/04/14 11:32:34;;;;;;;11.43;9.50;;;16.50;99.90;;;;;;6209270;23;20355;-58
2022/04/14 11:35:16;;;;;;;9.25;8.15;;;16.40;99.90;;;;;;6209788;23;20359;-57
2022/04/14 11:37:44;;;;;;;9.98;8.20;;;16.20;99.90;;;;;;6209663;23;20868;-58
2022/04/14 11:40:16;;;;;;;8.07;7.28;;;16.20;99.90;;;;;;6208881;23;20398;-57
2022/04/14 11:42:46;;;;;;;8.00;7.20;;;16.10;99.90;;;;;;6209675;23;20375;-59
2022/04/14 11:45:12;;;;;;;7.57;6.72;;;16.10;99.90;;;;;;6207921;23;20364;-58
2022/04/14 11:47:39;;;;;;;8.50;7.70;;;16.00;99.90;;;;;;6206466;23;20351;-59
2022/04/14 11:50:06;;;;;;;9.07;7.33;;;16.00;99.90;;;;;;6206097;23;20363;-58
2022/04/14 11:52:32;;;;;;;7.82;6.90;;;16.00;99.90;;;;;;6206094;23;20355;-59
2022/04/14 11:54:58;;;;;;;8.73;7.07;;;16.00;99.90;;;;;;6203654;23;20358;-59
2022/04/14 11:57:29;;;;;;;8.35;6.97;;;16.00;99.90;;;;;;6204429;23;20359;-58
2022/04/14 12:00:06;;;;;;;9.18;6.57;;;16.10;99.90;;;;;;6207210;23;20359;-58
2022/04/14 12:02:31;;;;;;;6.85;6.03;;;16.30;99.90;;;;;;6208854;23;20403;-58
2022/04/14 12:04:57;;;;;;;6.40;5.63;;;16.60;99.90;;;;;;6210100;23;20360;-58
2022/04/14 12:07:29;;;;;;;7.00;5.95;;;17.10;99.90;;;;;;6208179;23;20443;-58
2022/04/14 12:10:04;;;;;;;6.43;5.70;;;17.20;99.90;;;;;;6206228;23;20343;-57
2022/04/14 12:12:37;;;;;;;6.18;5.32;;;17.30;99.90;;;;;;6204406;23;20719;-59
2022/04/14 12:15:04;;;;;;;8.40;6.53;;;17.40;99.90;;;;;;6206188;23;20351;-59
2022/04/14 12:17:30;;;;;;;9.27;5.90;;;17.50;99.90;;;;;;6204728;23;20450;-56
2022/04/14 12:20:03;;;;;;;6.75;5.88;;;17.60;99.90;;;;;;6197609;23;20614;-59
2022/04/14 12:22:30;;;;;;;7.07;5.82;;;17.50;99.90;;;;;;6198007;23;20792;-57
2022/04/14 12:25:00;;;;;;;8.48;5.60;;;17.20;99.90;;;;;;6199214;23;20656;-59
2022/04/14 12:27:28;;;;;;;6.20;5.60;;;16.90;99.90;;;;;;6198401;23;20367;-59
2022/04/14 12:29:56;;;;;;;7.43;5.65;;;16.70;99.90;;;;;;6196780;23;20486;-59
2022/04/14 12:32:28;;;;;;;6.53;5.78;;;16.60;99.90;;;;;;6196721;23;20359;-58
2022/04/14 12:34:54;;;;;;;7.03;5.85;;;16.50;99.90;;;;;;6200963;23;20668;-59
2022/04/14 12:37:20;;;;;;;6.38;5.75;;;16.50;99.90;;;;;;6199615;23;20348;-59
2022/04/14 12:40:01;;;;;;;6.05;5.45;;;16.50;99.90;;;;;;6198613;23;20418;-59
2022/04/14 12:42:29;;;;;;;6.40;5.73;;;16.50;99.90;;;;;;6199234;23;20386;-59
2022/04/14 12:45:05;;;;;;;7.90;6.38;;;16.60;99.90;;;;;;6203558;23;20499;-57
2022/04/14 12:47:31;;;;;;;7.55;6.03;;;16.60;99.90;;;;;;6203209;23;20511;-58
2022/04/14 12:50:01;;;;;;;7.22;5.97;;;16.50;99.90;;;;;;6202023;23;20348;-59